sensor_id;sensor_type;location;lat;lon;timestamp;P1;durP1;ratioP1;P2;durP2;ratioP2
4307;SDS011;2167;53.448;9.984;2023-04-24T00:00:14;4.57;;;3.67;;
4307;SDS011;2167;53.448;9.984;2023-04-24T00:02:49;8.47;;;4.33;;
4307;SDS011;2167;53.448;9.984;2023-04-24T00:05:15;6.03;;;4.47;;
4307;SDS011;2167;53.448;9.984;2023-04-24T00:07:45;3.87;;;3.33;;
4307;SDS011;2167;53.448;9.984;2023-04-24T00:10:11;5.43;;;4.17;;
4307;SDS011;2167;53.448;9.984;2023-04-24T00:12:37;5.13;;;4.03;;
4307;SDS011;2167;53.448;9.984;2023-04-24T00:15:03;4.63;;;3.60;;
4307;SDS011;2167;53.448;9.984;2023-04-24T00:17:29;6.03;;;4.07;;
4307;SDS011;2167;53.448;9.984;2023-04-24T00:19:56;6.00;;;4.70;;
4307;SDS011;2167;53.448;9.984;2023-04-24T00:22:26;4.37;;;3.97;;
4307;SDS011;2167;53.448;9.984;2023-04-24T00:24:56;5.47;;;3.87;;
4307;SDS011;2167;53.448;9.984;2023-04-24T00:27:24;4.90;;;3.80;;
4307;SDS011;2167;53.448;9.984;2023-04-24T00:29:52;4.37;;;3.50;;
4307;SDS011;2167;53.448;9.984;2023-04-24T00:32:20;5.00;;;4.03;;
4307;SDS011;2167;53.448;9.984;2023-04-24T00:34:46;7.80;;;4.33;;
4307;SDS011;2167;53.448;9.984;2023-04-24T00:37:11;5.70;;;4.10;;
4307;SDS011;2167;53.448;9.984;2023-04-24T00:39:37;4.17;;;3.50;;
4307;SDS011;2167;53.448;9.984;2023-04-24T00:42:03;5.70;;;3.80;;
4307;SDS011;2167;53.448;9.984;2023-04-24T00:44:31;5.67;;;4.07;;
4307;SDS011;2167;53.448;9.984;2023-04-24T00:47:00;5.10;;;3.67;;
4307;SDS011;2167;53.448;9.984;2023-04-24T00:49:26;5.20;;;3.03;;
4307;SDS011;2167;53.448;9.984;2023-04-24T00:51:52;6.70;;;3.60;;
4307;SDS011;2167;53.448;9.984;2023-04-24T00:54:18;6.93;;;4.47;;
4307;SDS011;2167;53.448;9.984;2023-04-24T00:56:47;5.30;;;4.00;;
4307;SDS011;2167;53.448;9.984;2023-04-24T00:59:16;4.40;;;3.97;;
4307;SDS011;2167;53.448;9.984;2023-04-24T01:01:43;6.00;;;3.40;;
4307;SDS011;2167;53.448;9.984;2023-04-24T01:04:11;5.90;;;3.70;;
4307;SDS011;2167;53.448;9.984;2023-04-24T01:06:38;4.87;;;3.80;;
4307;SDS011;2167;53.448;9.984;2023-04-24T01:09:05;4.60;;;3.83;;
4307;SDS011;2167;53.448;9.984;2023-04-24T01:11:33;3.97;;;3.23;;
4307;SDS011;2167;53.448;9.984;2023-04-24T01:13:58;3.70;;;3.37;;
4307;SDS011;2167;53.448;9.984;2023-04-24T01:16:25;4.90;;;2.63;;
4307;SDS011;2167;53.448;9.984;2023-04-24T01:18:51;8.00;;;3.67;;
4307;SDS011;2167;53.448;9.984;2023-04-24T01:21:16;3.80;;;3.40;;
4307;SDS011;2167;53.448;9.984;2023-04-24T01:23:44;4.17;;;3.23;;
4307;SDS011;2167;53.448;9.984;2023-04-24T01:26:14;4.10;;;3.50;;
4307;SDS011;2167;53.448;9.984;2023-04-24T01:28:40;3.37;;;3.07;;
4307;SDS011;2167;53.448;9.984;2023-04-24T01:31:07;6.00;;;3.63;;
4307;SDS011;2167;53.448;9.984;2023-04-24T01:33:32;3.87;;;3.10;;
4307;SDS011;2167;53.448;9.984;2023-04-24T01:35:58;6.23;;;3.30;;
4307;SDS011;2167;53.448;9.984;2023-04-24T01:38:24;5.10;;;3.10;;
4307;SDS011;2167;53.448;9.984;2023-04-24T01:40:50;2.50;;;2.30;;
4307;SDS011;2167;53.448;9.984;2023-04-24T01:43:17;3.93;;;3.50;;
4307;SDS011;2167;53.448;9.984;2023-04-24T01:45:43;3.97;;;3.43;;
4307;SDS011;2167;53.448;9.984;2023-04-24T01:48:09;3.07;;;2.77;;
4307;SDS011;2167;53.448;9.984;2023-04-24T01:50:36;2.73;;;2.43;;
4307;SDS011;2167;53.448;9.984;2023-04-24T01:53:01;3.23;;;2.93;;
4307;SDS011;2167;53.448;9.984;2023-04-24T01:55:27;3.97;;;2.57;;
4307;SDS011;2167;53.448;9.984;2023-04-24T01:57:53;5.27;;;4.20;;
4307;SDS011;2167;53.448;9.984;2023-04-24T02:00:21;3.73;;;2.40;;
4307;SDS011;2167;53.448;9.984;2023-04-24T02:02:47;2.57;;;2.07;;
4307;SDS011;2167;53.448;9.984;2023-04-24T02:05:13;2.37;;;2.17;;
4307;SDS011;2167;53.448;9.984;2023-04-24T02:07:39;2.97;;;1.90;;
4307;SDS011;2167;53.448;9.984;2023-04-24T02:10:04;2.00;;;1.77;;
4307;SDS011;2167;53.448;9.984;2023-04-24T02:12:30;5.87;;;1.80;;
4307;SDS011;2167;53.448;9.984;2023-04-24T02:14:57;3.23;;;1.70;;
4307;SDS011;2167;53.448;9.984;2023-04-24T02:17:23;3.73;;;1.90;;
4307;SDS011;2167;53.448;9.984;2023-04-24T02:19:48;2.33;;;2.00;;
4307;SDS011;2167;53.448;9.984;2023-04-24T02:22:14;2.83;;;2.00;;
4307;SDS011;2167;53.448;9.984;2023-04-24T02:24:41;1.43;;;1.30;;
4307;SDS011;2167;53.448;9.984;2023-04-24T02:27:07;2.00;;;1.80;;
4307;SDS011;2167;53.448;9.984;2023-04-24T02:29:33;1.40;;;1.30;;
4307;SDS011;2167;53.448;9.984;2023-04-24T02:31:58;2.30;;;1.77;;
4307;SDS011;2167;53.448;9.984;2023-04-24T02:34:24;2.00;;;1.90;;
4307;SDS011;2167;53.448;9.984;2023-04-24T02:36:50;1.53;;;1.43;;
4307;SDS011;2167;53.448;9.984;2023-04-24T02:39:15;1.73;;;1.63;;
4307;SDS011;2167;53.448;9.984;2023-04-24T02:41:42;3.27;;;1.90;;
4307;SDS011;2167;53.448;9.984;2023-04-24T02:44:08;2.50;;;1.63;;
4307;SDS011;2167;53.448;9.984;2023-04-24T02:46:34;2.20;;;1.87;;
4307;SDS011;2167;53.448;9.984;2023-04-24T02:49:00;1.60;;;1.40;;
4307;SDS011;2167;53.448;9.984;2023-04-24T02:51:26;2.13;;;1.60;;
4307;SDS011;2167;53.448;9.984;2023-04-24T02:53:54;1.37;;;1.27;;
4307;SDS011;2167;53.448;9.984;2023-04-24T02:56:20;1.43;;;1.33;;
4307;SDS011;2167;53.448;9.984;2023-04-24T02:58:46;2.10;;;1.93;;
4307;SDS011;2167;53.448;9.984;2023-04-24T03:01:11;1.40;;;1.23;;
4307;SDS011;2167;53.448;9.984;2023-04-24T03:03:38;1.20;;;1.10;;
4307;SDS011;2167;53.448;9.984;2023-04-24T03:06:04;3.37;;;1.13;;
4307;SDS011;2167;53.448;9.984;2023-04-24T03:08:31;1.80;;;1.20;;
4307;SDS011;2167;53.448;9.984;2023-04-24T03:10:57;2.20;;;1.80;;
4307;SDS011;2167;53.448;9.984;2023-04-24T03:13:23;1.83;;;1.50;;
4307;SDS011;2167;53.448;9.984;2023-04-24T03:15:50;1.33;;;1.30;;
4307;SDS011;2167;53.448;9.984;2023-04-24T03:18:16;1.63;;;1.53;;
4307;SDS011;2167;53.448;9.984;2023-04-24T03:20:45;1.40;;;1.13;;
4307;SDS011;2167;53.448;9.984;2023-04-24T03:23:11;1.37;;;1.17;;
4307;SDS011;2167;53.448;9.984;2023-04-24T03:25:37;1.50;;;1.20;;
4307;SDS011;2167;53.448;9.984;2023-04-24T03:28:02;1.73;;;1.30;;
4307;SDS011;2167;53.448;9.984;2023-04-24T03:30:28;1.90;;;1.77;;
4307;SDS011;2167;53.448;9.984;2023-04-24T03:32:54;1.60;;;1.30;;
4307;SDS011;2167;53.448;9.984;2023-04-24T03:35:20;1.43;;;1.23;;
4307;SDS011;2167;53.448;9.984;2023-04-24T03:37:47;1.30;;;1.20;;
4307;SDS011;2167;53.448;9.984;2023-04-24T03:40:12;1.40;;;0.87;;
4307;SDS011;2167;53.448;9.984;2023-04-24T03:42:38;2.73;;;1.13;;
4307;SDS011;2167;53.448;9.984;2023-04-24T03:45:04;1.50;;;1.40;;
4307;SDS011;2167;53.448;9.984;2023-04-24T03:47:30;2.93;;;1.27;;
4307;SDS011;2167;53.448;9.984;2023-04-24T03:49:56;1.67;;;1.33;;
4307;SDS011;2167;53.448;9.984;2023-04-24T03:52:21;1.33;;;1.23;;
4307;SDS011;2167;53.448;9.984;2023-04-24T03:54:47;2.13;;;1.63;;
4307;SDS011;2167;53.448;9.984;2023-04-24T03:57:13;1.70;;;1.50;;
4307;SDS011;2167;53.448;9.984;2023-04-24T03:59:38;1.63;;;1.17;;
4307;SDS011;2167;53.448;9.984;2023-04-24T04:02:04;2.50;;;1.30;;
4307;SDS011;2167;53.448;9.984;2023-04-24T04:04:30;0.93;;;0.93;;
4307;SDS011;2167;53.448;9.984;2023-04-24T04:06:55;1.70;;;1.40;;
4307;SDS011;2167;53.448;9.984;2023-04-24T04:09:21;1.33;;;1.20;;
4307;SDS011;2167;53.448;9.984;2023-04-24T04:11:46;1.30;;;1.20;;
4307;SDS011;2167;53.448;9.984;2023-04-24T04:14:12;1.27;;;1.17;;
4307;SDS011;2167;53.448;9.984;2023-04-24T04:16:38;2.27;;;1.10;;
4307;SDS011;2167;53.448;9.984;2023-04-24T04:19:03;1.20;;;0.93;;
4307;SDS011;2167;53.448;9.984;2023-04-24T04:21:30;1.30;;;1.20;;
4307;SDS011;2167;53.448;9.984;2023-04-24T04:23:57;5.47;;;1.23;;
4307;SDS011;2167;53.448;9.984;2023-04-24T04:26:25;3.90;;;1.17;;
4307;SDS011;2167;53.448;9.984;2023-04-24T04:28:53;1.00;;;0.97;;
4307;SDS011;2167;53.448;9.984;2023-04-24T04:31:19;3.00;;;1.77;;
4307;SDS011;2167;53.448;9.984;2023-04-24T04:33:46;1.23;;;1.03;;
4307;SDS011;2167;53.448;9.984;2023-04-24T04:36:12;2.40;;;1.33;;
4307;SDS011;2167;53.448;9.984;2023-04-24T04:38:37;1.20;;;1.10;;
4307;SDS011;2167;53.448;9.984;2023-04-24T04:41:03;2.00;;;1.10;;
4307;SDS011;2167;53.448;9.984;2023-04-24T04:43:29;1.13;;;1.03;;
4307;SDS011;2167;53.448;9.984;2023-04-24T04:45:55;1.70;;;1.60;;
4307;SDS011;2167;53.448;9.984;2023-04-24T04:48:22;1.43;;;1.33;;
4307;SDS011;2167;53.448;9.984;2023-04-24T04:50:48;1.30;;;0.93;;
4307;SDS011;2167;53.448;9.984;2023-04-24T04:53:13;0.83;;;0.83;;
4307;SDS011;2167;53.448;9.984;2023-04-24T04:55:39;1.20;;;1.07;;
4307;SDS011;2167;53.448;9.984;2023-04-24T04:58:05;0.80;;;0.80;;
4307;SDS011;2167;53.448;9.984;2023-04-24T05:00:30;1.90;;;0.95;;
4307;SDS011;2167;53.448;9.984;2023-04-24T05:03:01;3.00;;;1.40;;
4307;SDS011;2167;53.448;9.984;2023-04-24T05:05:27;0.90;;;0.90;;
4307;SDS011;2167;53.448;9.984;2023-04-24T05:07:53;1.30;;;1.20;;
4307;SDS011;2167;53.448;9.984;2023-04-24T05:10:18;0.83;;;0.83;;
4307;SDS011;2167;53.448;9.984;2023-04-24T05:12:44;1.37;;;1.27;;
4307;SDS011;2167;53.448;9.984;2023-04-24T05:15:10;5.33;;;1.10;;
4307;SDS011;2167;53.448;9.984;2023-04-24T05:17:35;1.57;;;1.20;;
4307;SDS011;2167;53.448;9.984;2023-04-24T05:20:05;0.97;;;0.90;;
4307;SDS011;2167;53.448;9.984;2023-04-24T05:22:31;0.97;;;0.97;;
4307;SDS011;2167;53.448;9.984;2023-04-24T05:24:57;0.77;;;0.77;;
4307;SDS011;2167;53.448;9.984;2023-04-24T05:27:23;0.87;;;0.87;;
4307;SDS011;2167;53.448;9.984;2023-04-24T05:29:49;0.70;;;0.70;;
4307;SDS011;2167;53.448;9.984;2023-04-24T05:32:15;0.70;;;0.70;;
4307;SDS011;2167;53.448;9.984;2023-04-24T05:34:40;0.83;;;0.70;;
4307;SDS011;2167;53.448;9.984;2023-04-24T05:37:06;1.23;;;1.00;;
4307;SDS011;2167;53.448;9.984;2023-04-24T05:39:34;0.70;;;0.70;;
4307;SDS011;2167;53.448;9.984;2023-04-24T05:42:01;1.03;;;0.90;;
4307;SDS011;2167;53.448;9.984;2023-04-24T05:44:26;0.57;;;0.57;;
4307;SDS011;2167;53.448;9.984;2023-04-24T05:46:52;3.10;;;0.83;;
4307;SDS011;2167;53.448;9.984;2023-04-24T05:49:20;0.70;;;0.70;;
4307;SDS011;2167;53.448;9.984;2023-04-24T05:51:45;1.10;;;0.90;;
4307;SDS011;2167;53.448;9.984;2023-04-24T05:54:11;1.10;;;1.00;;
4307;SDS011;2167;53.448;9.984;2023-04-24T05:56:37;0.80;;;0.77;;
4307;SDS011;2167;53.448;9.984;2023-04-24T05:59:03;0.87;;;0.87;;
4307;SDS011;2167;53.448;9.984;2023-04-24T06:01:29;2.33;;;1.27;;
4307;SDS011;2167;53.448;9.984;2023-04-24T06:03:55;1.20;;;1.10;;
4307;SDS011;2167;53.448;9.984;2023-04-24T06:06:20;1.53;;;1.00;;
4307;SDS011;2167;53.448;9.984;2023-04-24T06:08:46;1.70;;;1.20;;
4307;SDS011;2167;53.448;9.984;2023-04-24T06:11:11;0.97;;;0.93;;
4307;SDS011;2167;53.448;9.984;2023-04-24T06:13:37;3.33;;;1.53;;
4307;SDS011;2167;53.448;9.984;2023-04-24T06:16:03;3.83;;;1.10;;
4307;SDS011;2167;53.448;9.984;2023-04-24T06:18:29;3.67;;;1.30;;
4307;SDS011;2167;53.448;9.984;2023-04-24T06:20:55;1.23;;;1.03;;
4307;SDS011;2167;53.448;9.984;2023-04-24T06:23:21;1.53;;;1.03;;
4307;SDS011;2167;53.448;9.984;2023-04-24T06:25:46;1.73;;;1.60;;
4307;SDS011;2167;53.448;9.984;2023-04-24T06:28:12;2.50;;;1.20;;
4307;SDS011;2167;53.448;9.984;2023-04-24T06:30:38;1.53;;;1.23;;
4307;SDS011;2167;53.448;9.984;2023-04-24T06:33:04;2.17;;;1.50;;
4307;SDS011;2167;53.448;9.984;2023-04-24T06:35:29;1.50;;;1.40;;
4307;SDS011;2167;53.448;9.984;2023-04-24T06:37:55;3.67;;;1.73;;
4307;SDS011;2167;53.448;9.984;2023-04-24T06:40:21;3.43;;;1.37;;
4307;SDS011;2167;53.448;9.984;2023-04-24T06:42:47;2.90;;;1.60;;
4307;SDS011;2167;53.448;9.984;2023-04-24T06:45:12;1.90;;;1.80;;
4307;SDS011;2167;53.448;9.984;2023-04-24T06:47:38;2.53;;;2.20;;
4307;SDS011;2167;53.448;9.984;2023-04-24T06:50:04;2.17;;;1.47;;
4307;SDS011;2167;53.448;9.984;2023-04-24T06:52:30;3.07;;;1.90;;
4307;SDS011;2167;53.448;9.984;2023-04-24T06:55:02;1.80;;;1.20;;
4307;SDS011;2167;53.448;9.984;2023-04-24T06:57:28;1.60;;;1.50;;
4307;SDS011;2167;53.448;9.984;2023-04-24T06:59:54;2.60;;;2.40;;
4307;SDS011;2167;53.448;9.984;2023-04-24T07:02:20;2.60;;;2.30;;
4307;SDS011;2167;53.448;9.984;2023-04-24T07:04:46;1.80;;;1.70;;
4307;SDS011;2167;53.448;9.984;2023-04-24T07:07:12;2.40;;;1.83;;
4307;SDS011;2167;53.448;9.984;2023-04-24T07:09:39;4.47;;;1.93;;
4307;SDS011;2167;53.448;9.984;2023-04-24T07:12:10;4.53;;;2.27;;
4307;SDS011;2167;53.448;9.984;2023-04-24T07:14:37;2.30;;;1.70;;
4307;SDS011;2167;53.448;9.984;2023-04-24T07:17:03;3.10;;;2.47;;
4307;SDS011;2167;53.448;9.984;2023-04-24T07:19:29;2.77;;;2.30;;
4307;SDS011;2167;53.448;9.984;2023-04-24T07:21:55;1.97;;;1.63;;
4307;SDS011;2167;53.448;9.984;2023-04-24T07:24:23;3.03;;;2.60;;
4307;SDS011;2167;53.448;9.984;2023-04-24T07:26:50;2.87;;;2.50;;
4307;SDS011;2167;53.448;9.984;2023-04-24T07:29:17;2.47;;;2.27;;
4307;SDS011;2167;53.448;9.984;2023-04-24T07:31:43;2.83;;;2.00;;
4307;SDS011;2167;53.448;9.984;2023-04-24T07:34:08;3.40;;;2.70;;
4307;SDS011;2167;53.448;9.984;2023-04-24T07:36:34;2.90;;;2.30;;
4307;SDS011;2167;53.448;9.984;2023-04-24T07:39:01;3.10;;;2.80;;
4307;SDS011;2167;53.448;9.984;2023-04-24T07:41:26;2.63;;;2.30;;
4307;SDS011;2167;53.448;9.984;2023-04-24T07:43:52;4.20;;;3.60;;
4307;SDS011;2167;53.448;9.984;2023-04-24T07:46:20;5.20;;;2.33;;
4307;SDS011;2167;53.448;9.984;2023-04-24T07:48:46;4.03;;;2.53;;
4307;SDS011;2167;53.448;9.984;2023-04-24T07:51:13;4.27;;;3.10;;
4307;SDS011;2167;53.448;9.984;2023-04-24T07:53:39;3.70;;;2.77;;
4307;SDS011;2167;53.448;9.984;2023-04-24T07:56:05;5.13;;;2.90;;
4307;SDS011;2167;53.448;9.984;2023-04-24T07:58:31;3.07;;;2.40;;
4307;SDS011;2167;53.448;9.984;2023-04-24T08:00:56;10.03;;;3.03;;
4307;SDS011;2167;53.448;9.984;2023-04-24T08:03:22;3.70;;;3.23;;
4307;SDS011;2167;53.448;9.984;2023-04-24T08:05:47;4.13;;;2.67;;
4307;SDS011;2167;53.448;9.984;2023-04-24T08:08:13;3.00;;;2.70;;
4307;SDS011;2167;53.448;9.984;2023-04-24T08:10:39;4.10;;;3.17;;
4307;SDS011;2167;53.448;9.984;2023-04-24T08:13:04;3.67;;;2.90;;
4307;SDS011;2167;53.448;9.984;2023-04-24T08:15:30;4.53;;;3.37;;
4307;SDS011;2167;53.448;9.984;2023-04-24T08:17:56;2.90;;;2.60;;
4307;SDS011;2167;53.448;9.984;2023-04-24T08:20:22;4.30;;;3.20;;
4307;SDS011;2167;53.448;9.984;2023-04-24T08:22:48;6.00;;;3.20;;
4307;SDS011;2167;53.448;9.984;2023-04-24T08:25:14;3.60;;;3.30;;
4307;SDS011;2167;53.448;9.984;2023-04-24T08:27:39;4.23;;;3.27;;
4307;SDS011;2167;53.448;9.984;2023-04-24T08:30:06;5.17;;;3.53;;
4307;SDS011;2167;53.448;9.984;2023-04-24T08:32:32;5.50;;;3.87;;
4307;SDS011;2167;53.448;9.984;2023-04-24T08:34:58;7.10;;;4.13;;
4307;SDS011;2167;53.448;9.984;2023-04-24T08:37:25;5.17;;;4.67;;
4307;SDS011;2167;53.448;9.984;2023-04-24T08:39:52;5.43;;;4.47;;
4307;SDS011;2167;53.448;9.984;2023-04-24T08:42:18;7.10;;;4.20;;
4307;SDS011;2167;53.448;9.984;2023-04-24T08:44:45;4.80;;;4.17;;
4307;SDS011;2167;53.448;9.984;2023-04-24T08:47:11;4.70;;;3.00;;
4307;SDS011;2167;53.448;9.984;2023-04-24T08:49:38;2.37;;;2.20;;
4307;SDS011;2167;53.448;9.984;2023-04-24T08:52:07;2.57;;;2.37;;
4307;SDS011;2167;53.448;9.984;2023-04-24T08:54:35;3.80;;;3.47;;
4307;SDS011;2167;53.448;9.984;2023-04-24T08:57:02;4.83;;;3.30;;
4307;SDS011;2167;53.448;9.984;2023-04-24T08:59:29;2.53;;;2.33;;
4307;SDS011;2167;53.448;9.984;2023-04-24T09:01:56;3.57;;;2.90;;
4307;SDS011;2167;53.448;9.984;2023-04-24T09:04:22;4.07;;;3.37;;
4307;SDS011;2167;53.448;9.984;2023-04-24T09:06:56;4.73;;;3.50;;
4307;SDS011;2167;53.448;9.984;2023-04-24T09:09:22;3.93;;;2.80;;
4307;SDS011;2167;53.448;9.984;2023-04-24T09:11:55;4.60;;;3.37;;
4307;SDS011;2167;53.448;9.984;2023-04-24T09:14:22;4.03;;;3.63;;
4307;SDS011;2167;53.448;9.984;2023-04-24T09:16:48;4.77;;;4.13;;
4307;SDS011;2167;53.448;9.984;2023-04-24T09:19:15;4.33;;;3.40;;
4307;SDS011;2167;53.448;9.984;2023-04-24T09:21:40;4.33;;;3.30;;
4307;SDS011;2167;53.448;9.984;2023-04-24T09:24:14;4.40;;;3.70;;
4307;SDS011;2167;53.448;9.984;2023-04-24T09:26:45;3.20;;;2.90;;
4307;SDS011;2167;53.448;9.984;2023-04-24T09:29:14;4.73;;;3.97;;
4307;SDS011;2167;53.448;9.984;2023-04-24T09:31:42;6.67;;;3.60;;
4307;SDS011;2167;53.448;9.984;2023-04-24T09:34:08;5.30;;;3.57;;
4307;SDS011;2167;53.448;9.984;2023-04-24T09:36:38;6.33;;;3.63;;
4307;SDS011;2167;53.448;9.984;2023-04-24T09:39:06;4.20;;;3.70;;
4307;SDS011;2167;53.448;9.984;2023-04-24T09:41:46;4.90;;;3.53;;
4307;SDS011;2167;53.448;9.984;2023-04-24T09:44:17;4.13;;;3.73;;
4307;SDS011;2167;53.448;9.984;2023-04-24T09:46:46;7.97;;;4.97;;
4307;SDS011;2167;53.448;9.984;2023-04-24T09:49:28;5.77;;;4.63;;
4307;SDS011;2167;53.448;9.984;2023-04-24T09:52:10;5.87;;;3.83;;
4307;SDS011;2167;53.448;9.984;2023-04-24T09:54:36;7.80;;;5.00;;
4307;SDS011;2167;53.448;9.984;2023-04-24T09:57:03;7.77;;;4.23;;
4307;SDS011;2167;53.448;9.984;2023-04-24T09:59:29;6.00;;;4.30;;
4307;SDS011;2167;53.448;9.984;2023-04-24T10:01:55;6.03;;;4.80;;
4307;SDS011;2167;53.448;9.984;2023-04-24T10:04:23;8.13;;;4.43;;
4307;SDS011;2167;53.448;9.984;2023-04-24T10:06:51;8.23;;;5.97;;
4307;SDS011;2167;53.448;9.984;2023-04-24T10:09:18;6.67;;;5.50;;
4307;SDS011;2167;53.448;9.984;2023-04-24T10:11:47;7.80;;;5.33;;
4307;SDS011;2167;53.448;9.984;2023-04-24T10:14:15;8.07;;;5.60;;
4307;SDS011;2167;53.448;9.984;2023-04-24T10:16:45;9.30;;;5.60;;
4307;SDS011;2167;53.448;9.984;2023-04-24T10:19:12;8.07;;;5.57;;
4307;SDS011;2167;53.448;9.984;2023-04-24T10:21:40;8.00;;;5.40;;
4307;SDS011;2167;53.448;9.984;2023-04-24T10:24:11;8.80;;;5.70;;
4307;SDS011;2167;53.448;9.984;2023-04-24T10:26:38;12.20;;;7.03;;
4307;SDS011;2167;53.448;9.984;2023-04-24T10:29:05;7.90;;;5.53;;
4307;SDS011;2167;53.448;9.984;2023-04-24T10:31:35;7.67;;;4.90;;
4307;SDS011;2167;53.448;9.984;2023-04-24T10:34:02;8.53;;;5.17;;
4307;SDS011;2167;53.448;9.984;2023-04-24T10:36:30;7.50;;;5.77;;
4307;SDS011;2167;53.448;9.984;2023-04-24T10:38:57;12.00;;;6.13;;
4307;SDS011;2167;53.448;9.984;2023-04-24T10:41:25;8.63;;;5.57;;
4307;SDS011;2167;53.448;9.984;2023-04-24T10:44:11;10.80;;;6.17;;
4307;SDS011;2167;53.448;9.984;2023-04-24T10:46:38;9.57;;;6.30;;
4307;SDS011;2167;53.448;9.984;2023-04-24T10:49:08;6.33;;;5.27;;
4307;SDS011;2167;53.448;9.984;2023-04-24T10:51:52;13.73;;;8.80;;
4307;SDS011;2167;53.448;9.984;2023-04-24T10:54:26;8.03;;;6.30;;
4307;SDS011;2167;53.448;9.984;2023-04-24T10:59:43;8.57;;;4.93;;
4307;SDS011;2167;53.448;9.984;2023-04-24T11:02:09;9.57;;;6.30;;
4307;SDS011;2167;53.448;9.984;2023-04-24T11:04:35;11.00;;;6.80;;
4307;SDS011;2167;53.448;9.984;2023-04-24T11:07:04;11.10;;;6.00;;
4307;SDS011;2167;53.448;9.984;2023-04-24T11:09:30;6.90;;;5.00;;
4307;SDS011;2167;53.448;9.984;2023-04-24T11:12:03;9.73;;;5.83;;
4307;SDS011;2167;53.448;9.984;2023-04-24T11:17:27;7.63;;;4.97;;
4307;SDS011;2167;53.448;9.984;2023-04-24T11:20:05;8.10;;;5.33;;
4307;SDS011;2167;53.448;9.984;2023-04-24T11:22:36;10.80;;;5.67;;
4307;SDS011;2167;53.448;9.984;2023-04-24T11:25:05;10.20;;;6.50;;
4307;SDS011;2167;53.448;9.984;2023-04-24T11:27:32;7.43;;;4.50;;
4307;SDS011;2167;53.448;9.984;2023-04-24T11:30:05;10.20;;;5.20;;
4307;SDS011;2167;53.448;9.984;2023-04-24T11:35:05;7.80;;;5.37;;
4307;SDS011;2167;53.448;9.984;2023-04-24T11:37:40;6.20;;;4.70;;
4307;SDS011;2167;53.448;9.984;2023-04-24T11:40:07;6.40;;;4.50;;
4307;SDS011;2167;53.448;9.984;2023-04-24T11:42:36;5.93;;;4.63;;
4307;SDS011;2167;53.448;9.984;2023-04-24T11:45:06;5.80;;;4.90;;
4307;SDS011;2167;53.448;9.984;2023-04-24T11:47:36;9.80;;;5.00;;
4307;SDS011;2167;53.448;9.984;2023-04-24T11:50:04;5.43;;;4.10;;
4307;SDS011;2167;53.448;9.984;2023-04-24T11:52:31;5.97;;;3.60;;
4307;SDS011;2167;53.448;9.984;2023-04-24T11:54:58;5.50;;;4.20;;
4307;SDS011;2167;53.448;9.984;2023-04-24T11:57:25;8.77;;;3.90;;
4307;SDS011;2167;53.448;9.984;2023-04-24T11:59:58;4.77;;;3.67;;
4307;SDS011;2167;53.448;9.984;2023-04-24T12:02:25;4.90;;;3.60;;
4307;SDS011;2167;53.448;9.984;2023-04-24T12:04:54;5.53;;;3.67;;
4307;SDS011;2167;53.448;9.984;2023-04-24T12:07:21;5.53;;;3.83;;
4307;SDS011;2167;53.448;9.984;2023-04-24T12:09:49;3.97;;;3.43;;
4307;SDS011;2167;53.448;9.984;2023-04-24T12:12:24;4.13;;;3.70;;
4307;SDS011;2167;53.448;9.984;2023-04-24T12:14:54;6.77;;;4.00;;
4307;SDS011;2167;53.448;9.984;2023-04-24T12:17:24;6.50;;;3.90;;
4307;SDS011;2167;53.448;9.984;2023-04-24T12:19:59;4.70;;;3.77;;
4307;SDS011;2167;53.448;9.984;2023-04-24T12:25:34;5.77;;;4.27;;
4307;SDS011;2167;53.448;9.984;2023-04-24T12:30:29;5.47;;;4.67;;
4307;SDS011;2167;53.448;9.984;2023-04-24T12:33:00;5.67;;;3.63;;
4307;SDS011;2167;53.448;9.984;2023-04-24T12:35:27;4.53;;;3.70;;
4307;SDS011;2167;53.448;9.984;2023-04-24T12:37:54;3.33;;;3.03;;
4307;SDS011;2167;53.448;9.984;2023-04-24T12:40:21;5.73;;;3.67;;
4307;SDS011;2167;53.448;9.984;2023-04-24T12:42:48;4.80;;;3.50;;
4307;SDS011;2167;53.448;9.984;2023-04-24T12:45:17;5.07;;;2.53;;
4307;SDS011;2167;53.448;9.984;2023-04-24T12:47:44;3.03;;;2.63;;
4307;SDS011;2167;53.448;9.984;2023-04-24T12:50:11;3.80;;;2.90;;
4307;SDS011;2167;53.448;9.984;2023-04-24T12:52:38;5.20;;;3.10;;
4307;SDS011;2167;53.448;9.984;2023-04-24T12:55:05;3.60;;;3.30;;
4307;SDS011;2167;53.448;9.984;2023-04-24T12:57:33;3.90;;;2.90;;
4307;SDS011;2167;53.448;9.984;2023-04-24T13:00:00;3.10;;;2.60;;
4307;SDS011;2167;53.448;9.984;2023-04-24T13:02:27;5.83;;;3.30;;
4307;SDS011;2167;53.448;9.984;2023-04-24T13:04:54;4.10;;;3.30;;
4307;SDS011;2167;53.448;9.984;2023-04-24T13:07:20;3.60;;;2.63;;
4307;SDS011;2167;53.448;9.984;2023-04-24T13:09:47;5.33;;;3.03;;
4307;SDS011;2167;53.448;9.984;2023-04-24T13:12:14;6.60;;;3.60;;
4307;SDS011;2167;53.448;9.984;2023-04-24T13:14:39;3.70;;;3.40;;
4307;SDS011;2167;53.448;9.984;2023-04-24T13:17:05;5.57;;;3.67;;
4307;SDS011;2167;53.448;9.984;2023-04-24T13:19:35;3.33;;;2.87;;
4307;SDS011;2167;53.448;9.984;2023-04-24T13:22:02;3.00;;;2.70;;
4307;SDS011;2167;53.448;9.984;2023-04-24T13:24:28;3.40;;;2.73;;
4307;SDS011;2167;53.448;9.984;2023-04-24T13:26:54;3.40;;;3.10;;
4307;SDS011;2167;53.448;9.984;2023-04-24T13:29:21;3.23;;;2.93;;
4307;SDS011;2167;53.448;9.984;2023-04-24T13:31:47;4.03;;;3.30;;
4307;SDS011;2167;53.448;9.984;2023-04-24T13:34:14;3.37;;;2.97;;
4307;SDS011;2167;53.448;9.984;2023-04-24T13:36:40;3.20;;;2.90;;
4307;SDS011;2167;53.448;9.984;2023-04-24T13:39:07;4.17;;;2.90;;
4307;SDS011;2167;53.448;9.984;2023-04-24T13:41:33;3.30;;;3.10;;
4307;SDS011;2167;53.448;9.984;2023-04-24T13:44:00;5.40;;;4.23;;
4307;SDS011;2167;53.448;9.984;2023-04-24T13:46:26;3.63;;;3.30;;
4307;SDS011;2167;53.448;9.984;2023-04-24T13:48:51;6.87;;;2.93;;
4307;SDS011;2167;53.448;9.984;2023-04-24T13:51:17;3.47;;;2.77;;
4307;SDS011;2167;53.448;9.984;2023-04-24T13:53:43;5.10;;;3.00;;
4307;SDS011;2167;53.448;9.984;2023-04-24T13:56:08;6.13;;;3.37;;
4307;SDS011;2167;53.448;9.984;2023-04-24T13:58:34;4.03;;;3.43;;
4307;SDS011;2167;53.448;9.984;2023-04-24T14:01:03;3.23;;;2.93;;
4307;SDS011;2167;53.448;9.984;2023-04-24T14:03:29;3.43;;;3.13;;
4307;SDS011;2167;53.448;9.984;2023-04-24T14:05:55;3.30;;;3.00;;
4307;SDS011;2167;53.448;9.984;2023-04-24T14:08:20;3.67;;;2.83;;
4307;SDS011;2167;53.448;9.984;2023-04-24T14:10:46;4.20;;;3.60;;
4307;SDS011;2167;53.448;9.984;2023-04-24T14:13:12;5.57;;;3.27;;
4307;SDS011;2167;53.448;9.984;2023-04-24T14:15:37;5.10;;;2.07;;
4307;SDS011;2167;53.448;9.984;2023-04-24T14:18:03;3.30;;;2.73;;
4307;SDS011;2167;53.448;9.984;2023-04-24T14:20:29;3.77;;;2.60;;
4307;SDS011;2167;53.448;9.984;2023-04-24T14:22:55;5.03;;;2.87;;
4307;SDS011;2167;53.448;9.984;2023-04-24T14:25:24;2.93;;;2.10;;
4307;SDS011;2167;53.448;9.984;2023-04-24T14:27:50;2.60;;;2.13;;
4307;SDS011;2167;53.448;9.984;2023-04-24T14:30:16;3.13;;;2.53;;
4307;SDS011;2167;53.448;9.984;2023-04-24T14:32:42;3.33;;;2.20;;
4307;SDS011;2167;53.448;9.984;2023-04-24T14:35:08;3.47;;;2.10;;
4307;SDS011;2167;53.448;9.984;2023-04-24T14:37:33;2.07;;;1.87;;
4307;SDS011;2167;53.448;9.984;2023-04-24T14:40:00;1.90;;;1.80;;
4307;SDS011;2167;53.448;9.984;2023-04-24T14:42:26;2.27;;;2.07;;
4307;SDS011;2167;53.448;9.984;2023-04-24T14:44:53;4.20;;;2.40;;
4307;SDS011;2167;53.448;9.984;2023-04-24T14:47:20;4.27;;;2.40;;
4307;SDS011;2167;53.448;9.984;2023-04-24T14:49:48;1.93;;;1.73;;
4307;SDS011;2167;53.448;9.984;2023-04-24T14:52:14;3.37;;;2.67;;
4307;SDS011;2167;53.448;9.984;2023-04-24T14:54:40;4.60;;;2.83;;
4307;SDS011;2167;53.448;9.984;2023-04-24T14:57:06;6.87;;;2.90;;
4307;SDS011;2167;53.448;9.984;2023-04-24T14:59:32;2.73;;;2.50;;
4307;SDS011;2167;53.448;9.984;2023-04-24T15:01:58;5.00;;;2.70;;
4307;SDS011;2167;53.448;9.984;2023-04-24T15:04:24;3.83;;;3.00;;
4307;SDS011;2167;53.448;9.984;2023-04-24T15:06:52;3.40;;;3.00;;
4307;SDS011;2167;53.448;9.984;2023-04-24T15:09:22;6.73;;;3.27;;
4307;SDS011;2167;53.448;9.984;2023-04-24T15:11:54;6.43;;;3.20;;
4307;SDS011;2167;53.448;9.984;2023-04-24T15:14:20;5.37;;;3.40;;
4307;SDS011;2167;53.448;9.984;2023-04-24T15:16:45;3.20;;;2.50;;
4307;SDS011;2167;53.448;9.984;2023-04-24T15:19:11;4.47;;;2.67;;
4307;SDS011;2167;53.448;9.984;2023-04-24T15:21:37;4.20;;;2.60;;
4307;SDS011;2167;53.448;9.984;2023-04-24T15:24:03;4.23;;;2.83;;
4307;SDS011;2167;53.448;9.984;2023-04-24T15:26:29;3.30;;;2.40;;